»·PEaware :: SKY525 KOAR-KPAO

SKY525 :: KOAR-KPAO

FLIGHT INFORMATION

Flight Status: Arrived
Operator:
Skymark Airlines
More flights by this operator :: More flights under this callsign
Pilot: Kim B. (19519)
Aircraft: DORNIER 228
(D228)
More flights by this aircraft type
Origin: KOAR Marina
United States
Destination: KPAO Palo Alto Of Santa Clara Co
United States
More flights between these airports :: More routes between these airports
Route: +SNS V25 SAPID SJC
File this flight plan on PilotEdge
Remarks: SKY-4
Altitude:
(Current/Filed)
6,000ft
Speed:
(Current/Filed)
190kts
Departed: 04-Nov-18 01:57 PM
Arrived: 04-Nov-18 02:29 PM
Distance/Time
Traveled:
50nm/0:31
Distance/Time
To Go:
Arrived

Flight Plot

Page will automatically refresh every two minutes.

Flight plan parsing failed; only flown route is shown


Map Options




Map Legend


Flown Route
Filed Route
Departure Airport
Arrival Airport
Navaid (VOR, NDB)
Fix

Horizontal Profiles

Position Reports

Time Latitude Longitude Heading Altitude Ground
Speed
04-Nov-18 13:49 36.680191 -121.763985 123 140ft 0kts
04-Nov-18 13:50 36.680191 -121.763985 123 140ft 0kts
04-Nov-18 13:51 36.680191 -121.763985 123 140ft 0kts
04-Nov-18 13:52 36.680191 -121.763985 123 140ft 0kts
04-Nov-18 13:53 36.680191 -121.763985 123 140ft 0kts
04-Nov-18 13:54 36.680191 -121.763985 123 140ft 0kts
04-Nov-18 13:55 36.680191 -121.763985 123 140ft 0kts
04-Nov-18 13:56 36.680170 -121.763649 52 141ft 14kts
04-Nov-18 13:57 36.681531 -121.764984 302 140ft 17kts
04-Nov-18 13:58 36.683663 -121.766907 31 140ft 0kts
04-Nov-18 13:59 36.683944 -121.766278 121 140ft 5kts
04-Nov-18 14:00 36.670163 -121.737485 120 1001ft 133kts
04-Nov-18 14:01 36.651750 -121.697689 103 2965ft 135kts
04-Nov-18 14:02 36.656598 -121.653626 74 4824ft 129kts
04-Nov-18 14:03 36.667059 -121.609750 37 6012ft 148kts
04-Nov-18 14:03 36.693186 -121.625841 291 6000ft 154kts
04-Nov-18 14:05 36.717199 -121.679458 310 6000ft 154kts
04-Nov-18 14:05 36.740371 -121.713224 309 6000ft 154kts
04-Nov-18 14:07 36.773293 -121.760849 309 5983ft 155kts
04-Nov-18 14:07 36.796885 -121.794887 308 5982ft 156kts
04-Nov-18 14:08 36.825483 -121.836160 307 5982ft 158kts
04-Nov-18 14:09 36.854267 -121.877753 307 5982ft 161kts
04-Nov-18 14:10 36.881401 -121.917003 307 5982ft 162kts
04-Nov-18 14:11 36.910829 -121.959621 307 5983ft 162kts
04-Nov-18 14:12 36.940609 -122.002821 307 5992ft 186kts
04-Nov-18 14:13 36.978038 -122.053606 317 5993ft 205kts
04-Nov-18 14:14 37.026378 -122.091085 330 5993ft 205kts
04-Nov-18 14:15 37.076817 -122.120128 334 5994ft 200kts
04-Nov-18 14:16 37.127263 -122.138078 21 5979ft 201kts
04-Nov-18 14:17 37.168504 -122.106328 27 5998ft 199kts
04-Nov-18 14:18 37.212542 -122.071903 27 5997ft 200kts
04-Nov-18 14:19 37.247287 -122.044708 28 5996ft 199kts
04-Nov-18 14:20 37.285773 -122.014567 28 5995ft 198kts
04-Nov-18 14:21 37.328865 -121.980696 27 5989ft 171kts
04-Nov-18 14:22 37.367727 -121.950103 30 5991ft 163kts
04-Nov-18 14:23 37.348429 -121.906690 162 5313ft 202kts
04-Nov-18 14:25 37.320593 -121.860804 46 4090ft 196kts
04-Nov-18 14:26 37.353853 -121.885471 293 2999ft 177kts
04-Nov-18 14:27 37.371996 -121.936253 296 2989ft 151kts
04-Nov-18 14:28 37.394171 -121.984459 303 2298ft 172kts
04-Nov-18 14:29 37.419241 -122.034696 303 1715ft 142kts
04-Nov-18 14:30 37.436130 -122.068794 304 1312ft 103kts
04-Nov-18 14:31 37.450818 -122.100395 293 393ft 102kts
04-Nov-18 14:32 37.460428 -122.114977 309 12ft 5kts
04-Nov-18 14:33 37.460482 -122.115033 322 12ft 0kts
04-Nov-18 14:34 37.461831 -122.116375 323 12ft 8kts
04-Nov-18 14:35 37.459347 -122.114457 124 12ft 11kts
04-Nov-18 14:36 37.459013 -122.114042 94 12ft 0kts
04-Nov-18 14:37 37.459013 -122.114042 94 12ft 0kts
04-Nov-18 14:38 37.459013 -122.114042 94 12ft 0kts
04-Nov-18 14:39 37.459013 -122.114042 94 12ft 0kts
04-Nov-18 14:40 37.459013 -122.114042 94 12ft 0kts
04-Nov-18 14:41 37.459013 -122.114042 94 12ft 0kts
04-Nov-18 14:42 37.459013 -122.114042 94 12ft 0kts
04-Nov-18 14:43 37.459013 -122.114042 94 12ft 0kts
04-Nov-18 14:44 37.459013 -122.114042 94 12ft 0kts
04-Nov-18 14:45 37.459013 -122.114042 94 12ft 0kts
04-Nov-18 14:46 37.459013 -122.114042 94 12ft 0kts

Navigation Log

Ident Type
Flight plan parsing failed, navigation log unavailable